West Ossipee, New Hampshire
Current Conditions -  °F | °C
As of 7:54 PM on Saturday 22 Nov 2014 (Local Time) from KIZG Reporting Station
Clear Clear  
Wind Chill: 33°   Ceiling: Unl
Heat Index: 38°   Visibility: 10mi
Dew Point: 14°   Wind: 7mph
Humidity: 38%   Direction: NA
Pressure: 29.93"   Gusts: 18mph
Location:  43.82°N, 71.21°W
Report Text: KIZG 230054Z AUTO VRB06G16KT 10SM CLR 03/M10 A2993 RMK AO2 SLP143 T00331100
Loading
Personal Weather Stations






























Interactive Weather Map New forecast layout! Learn more

10-Day Weather Forecast

Advertisements
Track Severe Weather on mobile